sensor_id;sensor_type;location;lat;lon;timestamp;P1;durP1;ratioP1;P2;durP2;ratioP2
48552;SDS011;34335;51.566;6.994;2022-08-02T00:02:17;4.32;;;2.15;;
48552;SDS011;34335;51.566;6.994;2022-08-02T00:04:43;5.63;;;2.50;;
48552;SDS011;34335;51.566;6.994;2022-08-02T00:07:08;4.23;;;2.10;;
48552;SDS011;34335;51.566;6.994;2022-08-02T00:09:33;8.00;;;2.70;;
48552;SDS011;34335;51.566;6.994;2022-08-02T00:11:59;4.72;;;2.17;;
48552;SDS011;34335;51.566;6.994;2022-08-02T00:14:24;6.47;;;2.53;;
48552;SDS011;34335;51.566;6.994;2022-08-02T00:16:49;5.68;;;2.20;;
48552;SDS011;34335;51.566;6.994;2022-08-02T00:19:15;3.42;;;2.10;;
48552;SDS011;34335;51.566;6.994;2022-08-02T00:21:40;6.28;;;2.63;;
48552;SDS011;34335;51.566;6.994;2022-08-02T00:24:05;6.03;;;2.22;;
48552;SDS011;34335;51.566;6.994;2022-08-02T00:26:31;5.75;;;2.40;;
48552;SDS011;34335;51.566;6.994;2022-08-02T00:28:56;5.07;;;2.17;;
48552;SDS011;34335;51.566;6.994;2022-08-02T00:31:22;5.33;;;2.73;;
48552;SDS011;34335;51.566;6.994;2022-08-02T00:33:47;3.90;;;2.05;;
48552;SDS011;34335;51.566;6.994;2022-08-02T00:36:12;4.40;;;2.28;;
48552;SDS011;34335;51.566;6.994;2022-08-02T00:38:38;4.93;;;1.85;;
48552;SDS011;34335;51.566;6.994;2022-08-02T00:41:03;5.00;;;2.30;;
48552;SDS011;34335;51.566;6.994;2022-08-02T00:43:36;5.03;;;2.42;;
48552;SDS011;34335;51.566;6.994;2022-08-02T00:46:01;5.67;;;2.07;;
48552;SDS011;34335;51.566;6.994;2022-08-02T00:48:26;4.95;;;2.30;;
48552;SDS011;34335;51.566;6.994;2022-08-02T00:50:52;5.53;;;2.53;;
48552;SDS011;34335;51.566;6.994;2022-08-02T00:53:17;4.73;;;2.53;;
48552;SDS011;34335;51.566;6.994;2022-08-02T00:55:42;4.60;;;2.30;;
48552;SDS011;34335;51.566;6.994;2022-08-02T00:58:07;4.00;;;2.27;;
48552;SDS011;34335;51.566;6.994;2022-08-02T01:00:33;6.72;;;2.28;;
48552;SDS011;34335;51.566;6.994;2022-08-02T01:02:58;6.18;;;2.38;;
48552;SDS011;34335;51.566;6.994;2022-08-02T01:05:24;8.10;;;2.47;;
48552;SDS011;34335;51.566;6.994;2022-08-02T01:07:49;3.85;;;2.45;;
48552;SDS011;34335;51.566;6.994;2022-08-02T01:10:14;6.20;;;2.03;;
48552;SDS011;34335;51.566;6.994;2022-08-02T01:12:40;7.50;;;2.40;;
48552;SDS011;34335;51.566;6.994;2022-08-02T01:15:07;5.35;;;2.45;;
48552;SDS011;34335;51.566;6.994;2022-08-02T01:23:12;5.07;;;2.30;;
48552;SDS011;34335;51.566;6.994;2022-08-02T01:28:40;5.93;;;2.28;;
48552;SDS011;34335;51.566;6.994;2022-08-02T01:31:14;5.03;;;2.22;;
48552;SDS011;34335;51.566;6.994;2022-08-02T01:36:34;6.82;;;3.08;;
48552;SDS011;34335;51.566;6.994;2022-08-02T01:39:04;5.90;;;2.28;;
48552;SDS011;34335;51.566;6.994;2022-08-02T01:41:33;5.03;;;2.20;;
48552;SDS011;34335;51.566;6.994;2022-08-02T01:43:59;5.93;;;2.45;;
48552;SDS011;34335;51.566;6.994;2022-08-02T01:46:28;4.00;;;2.42;;
48552;SDS011;34335;51.566;6.994;2022-08-02T01:48:55;8.52;;;2.35;;
48552;SDS011;34335;51.566;6.994;2022-08-02T01:51:24;5.93;;;2.53;;
48552;SDS011;34335;51.566;6.994;2022-08-02T01:54:10;6.15;;;2.25;;
48552;SDS011;34335;51.566;6.994;2022-08-02T01:56:38;5.88;;;2.15;;
48552;SDS011;34335;51.566;6.994;2022-08-02T01:59:05;4.47;;;2.55;;
48552;SDS011;34335;51.566;6.994;2022-08-02T02:01:34;4.28;;;2.40;;
48552;SDS011;34335;51.566;6.994;2022-08-02T02:04:02;4.25;;;2.30;;
48552;SDS011;34335;51.566;6.994;2022-08-02T02:06:30;9.38;;;3.65;;
48552;SDS011;34335;51.566;6.994;2022-08-02T02:08:56;5.20;;;2.38;;
48552;SDS011;34335;51.566;6.994;2022-08-02T02:11:24;4.15;;;2.30;;
48552;SDS011;34335;51.566;6.994;2022-08-02T02:13:49;5.53;;;2.72;;
48552;SDS011;34335;51.566;6.994;2022-08-02T02:16:16;5.25;;;2.90;;
48552;SDS011;34335;51.566;6.994;2022-08-02T02:18:44;5.28;;;2.22;;
48552;SDS011;34335;51.566;6.994;2022-08-02T02:21:12;4.22;;;2.63;;
48552;SDS011;34335;51.566;6.994;2022-08-02T02:23:38;9.77;;;2.50;;
48552;SDS011;34335;51.566;6.994;2022-08-02T02:26:04;3.83;;;2.33;;
48552;SDS011;34335;51.566;6.994;2022-08-02T02:28:30;6.45;;;2.80;;
48552;SDS011;34335;51.566;6.994;2022-08-02T02:31:11;4.38;;;2.55;;
48552;SDS011;34335;51.566;6.994;2022-08-02T02:33:40;4.95;;;2.40;;
48552;SDS011;34335;51.566;6.994;2022-08-02T02:36:21;5.53;;;2.63;;
48552;SDS011;34335;51.566;6.994;2022-08-02T02:38:46;7.18;;;2.90;;
48552;SDS011;34335;51.566;6.994;2022-08-02T02:41:12;6.78;;;2.58;;
48552;SDS011;34335;51.566;6.994;2022-08-02T02:43:40;9.65;;;3.78;;
48552;SDS011;34335;51.566;6.994;2022-08-02T02:46:08;4.68;;;2.65;;
48552;SDS011;34335;51.566;6.994;2022-08-02T02:48:35;5.97;;;2.42;;
48552;SDS011;34335;51.566;6.994;2022-08-02T02:51:02;3.88;;;2.38;;
48552;SDS011;34335;51.566;6.994;2022-08-02T02:53:29;7.35;;;2.67;;
48552;SDS011;34335;51.566;6.994;2022-08-02T02:55:55;6.93;;;3.05;;
48552;SDS011;34335;51.566;6.994;2022-08-02T02:58:21;6.30;;;2.75;;
48552;SDS011;34335;51.566;6.994;2022-08-02T03:00:47;7.78;;;2.80;;
48552;SDS011;34335;51.566;6.994;2022-08-02T03:05:56;5.75;;;3.10;;
48552;SDS011;34335;51.566;6.994;2022-08-02T03:08:22;7.20;;;2.87;;
48552;SDS011;34335;51.566;6.994;2022-08-02T03:10:47;5.38;;;2.92;;
48552;SDS011;34335;51.566;6.994;2022-08-02T03:13:12;12.70;;;3.83;;
48552;SDS011;34335;51.566;6.994;2022-08-02T03:15:39;5.57;;;2.42;;
48552;SDS011;34335;51.566;6.994;2022-08-02T03:18:05;5.80;;;2.60;;
48552;SDS011;34335;51.566;6.994;2022-08-02T03:20:33;5.80;;;3.10;;
48552;SDS011;34335;51.566;6.994;2022-08-02T03:22:59;4.80;;;3.10;;
48552;SDS011;34335;51.566;6.994;2022-08-02T03:25:24;6.70;;;3.27;;
48552;SDS011;34335;51.566;6.994;2022-08-02T03:27:49;4.45;;;2.75;;
48552;SDS011;34335;51.566;6.994;2022-08-02T03:30:15;5.57;;;2.78;;
48552;SDS011;34335;51.566;6.994;2022-08-02T03:32:42;5.93;;;2.87;;
48552;SDS011;34335;51.566;6.994;2022-08-02T03:35:10;12.48;;;3.30;;
48552;SDS011;34335;51.566;6.994;2022-08-02T03:37:37;10.45;;;2.72;;
48552;SDS011;34335;51.566;6.994;2022-08-02T03:40:04;4.05;;;2.47;;
48552;SDS011;34335;51.566;6.994;2022-08-02T03:42:32;4.88;;;3.20;;
48552;SDS011;34335;51.566;6.994;2022-08-02T03:44:57;8.88;;;3.58;;
48552;SDS011;34335;51.566;6.994;2022-08-02T03:47:25;5.20;;;3.00;;
48552;SDS011;34335;51.566;6.994;2022-08-02T03:49:52;5.32;;;3.13;;
48552;SDS011;34335;51.566;6.994;2022-08-02T03:52:17;7.28;;;3.25;;
48552;SDS011;34335;51.566;6.994;2022-08-02T03:54:43;11.93;;;3.25;;
48552;SDS011;34335;51.566;6.994;2022-08-02T03:57:09;5.75;;;3.00;;
48552;SDS011;34335;51.566;6.994;2022-08-02T03:59:44;7.63;;;3.33;;
48552;SDS011;34335;51.566;6.994;2022-08-02T04:02:10;11.10;;;3.47;;
48552;SDS011;34335;51.566;6.994;2022-08-02T04:04:36;9.90;;;3.50;;
48552;SDS011;34335;51.566;6.994;2022-08-02T04:07:02;7.22;;;3.40;;
48552;SDS011;34335;51.566;6.994;2022-08-02T04:09:28;7.30;;;3.30;;
48552;SDS011;34335;51.566;6.994;2022-08-02T04:11:53;7.07;;;3.70;;
48552;SDS011;34335;51.566;6.994;2022-08-02T04:14:18;7.73;;;3.50;;
48552;SDS011;34335;51.566;6.994;2022-08-02T04:16:55;6.35;;;3.35;;
48552;SDS011;34335;51.566;6.994;2022-08-02T04:19:36;10.80;;;4.47;;
48552;SDS011;34335;51.566;6.994;2022-08-02T04:22:05;6.00;;;3.90;;
48552;SDS011;34335;51.566;6.994;2022-08-02T04:24:37;9.80;;;4.63;;
48552;SDS011;34335;51.566;6.994;2022-08-02T04:27:11;5.55;;;3.53;;
48552;SDS011;34335;51.566;6.994;2022-08-02T04:29:39;6.30;;;3.55;;
48552;SDS011;34335;51.566;6.994;2022-08-02T04:32:05;6.93;;;3.75;;
48552;SDS011;34335;51.566;6.994;2022-08-02T04:34:31;7.70;;;4.05;;
48552;SDS011;34335;51.566;6.994;2022-08-02T04:36:57;6.28;;;3.10;;
48552;SDS011;34335;51.566;6.994;2022-08-02T04:39:23;6.40;;;3.80;;
48552;SDS011;34335;51.566;6.994;2022-08-02T04:41:49;6.03;;;3.85;;
48552;SDS011;34335;51.566;6.994;2022-08-02T04:44:14;6.53;;;3.90;;
48552;SDS011;34335;51.566;6.994;2022-08-02T04:46:40;10.52;;;4.05;;
48552;SDS011;34335;51.566;6.994;2022-08-02T04:49:07;7.88;;;3.92;;
48552;SDS011;34335;51.566;6.994;2022-08-02T04:51:39;14.23;;;5.22;;
48552;SDS011;34335;51.566;6.994;2022-08-02T04:54:08;42.88;;;8.38;;
48552;SDS011;34335;51.566;6.994;2022-08-02T04:56:34;34.63;;;7.80;;
48552;SDS011;34335;51.566;6.994;2022-08-02T04:59:00;21.10;;;6.07;;
48552;SDS011;34335;51.566;6.994;2022-08-02T05:01:25;14.07;;;4.85;;
48552;SDS011;34335;51.566;6.994;2022-08-02T05:03:51;9.80;;;4.78;;
48552;SDS011;34335;51.566;6.994;2022-08-02T05:06:16;13.97;;;4.73;;
48552;SDS011;34335;51.566;6.994;2022-08-02T05:08:43;11.88;;;4.65;;
48552;SDS011;34335;51.566;6.994;2022-08-02T05:11:09;8.95;;;4.78;;
48552;SDS011;34335;51.566;6.994;2022-08-02T05:13:34;12.93;;;5.63;;
48552;SDS011;34335;51.566;6.994;2022-08-02T05:15:59;14.17;;;5.50;;
48552;SDS011;34335;51.566;6.994;2022-08-02T05:18:26;17.02;;;5.38;;
48552;SDS011;34335;51.566;6.994;2022-08-02T05:20:53;11.57;;;5.32;;
48552;SDS011;34335;51.566;6.994;2022-08-02T05:23:18;8.98;;;5.35;;
48552;SDS011;34335;51.566;6.994;2022-08-02T05:25:44;12.18;;;5.10;;
48552;SDS011;34335;51.566;6.994;2022-08-02T05:28:09;12.17;;;5.87;;
48552;SDS011;34335;51.566;6.994;2022-08-02T05:30:34;12.77;;;5.60;;
48552;SDS011;34335;51.566;6.994;2022-08-02T05:32:59;11.93;;;5.57;;
48552;SDS011;34335;51.566;6.994;2022-08-02T05:35:25;12.65;;;6.25;;
48552;SDS011;34335;51.566;6.994;2022-08-02T05:37:50;11.95;;;6.30;;
48552;SDS011;34335;51.566;6.994;2022-08-02T05:40:16;8.88;;;5.32;;
48552;SDS011;34335;51.566;6.994;2022-08-02T05:42:43;7.80;;;5.00;;
48552;SDS011;34335;51.566;6.994;2022-08-02T05:45:08;11.07;;;5.93;;
48552;SDS011;34335;51.566;6.994;2022-08-02T05:47:34;11.05;;;6.32;;
48552;SDS011;34335;51.566;6.994;2022-08-02T05:50:00;10.85;;;6.00;;
48552;SDS011;34335;51.566;6.994;2022-08-02T05:52:26;9.55;;;6.45;;
48552;SDS011;34335;51.566;6.994;2022-08-02T06:00:12;9.25;;;7.00;;
48552;SDS011;34335;51.566;6.994;2022-08-02T06:05:11;12.47;;;6.87;;
48552;SDS011;34335;51.566;6.994;2022-08-02T06:07:39;10.55;;;6.43;;
48552;SDS011;34335;51.566;6.994;2022-08-02T06:10:06;9.80;;;6.20;;
48552;SDS011;34335;51.566;6.994;2022-08-02T06:12:35;10.10;;;6.22;;
48552;SDS011;34335;51.566;6.994;2022-08-02T06:15:05;9.07;;;5.97;;
48552;SDS011;34335;51.566;6.994;2022-08-02T06:17:31;9.02;;;5.38;;
48552;SDS011;34335;51.566;6.994;2022-08-02T06:19:57;13.50;;;7.60;;
48552;SDS011;34335;51.566;6.994;2022-08-02T06:22:24;21.08;;;8.65;;
48552;SDS011;34335;51.566;6.994;2022-08-02T06:24:51;21.42;;;7.43;;
48552;SDS011;34335;51.566;6.994;2022-08-02T06:27:19;7.10;;;5.03;;
48552;SDS011;34335;51.566;6.994;2022-08-02T06:29:45;9.07;;;6.18;;
48552;SDS011;34335;51.566;6.994;2022-08-02T06:32:15;8.55;;;6.30;;
48552;SDS011;34335;51.566;6.994;2022-08-02T06:34:42;12.45;;;6.88;;
48552;SDS011;34335;51.566;6.994;2022-08-02T06:37:26;15.02;;;7.10;;
48552;SDS011;34335;51.566;6.994;2022-08-02T06:40:03;10.50;;;6.72;;
48552;SDS011;34335;51.566;6.994;2022-08-02T06:45:11;12.90;;;6.38;;
48552;SDS011;34335;51.566;6.994;2022-08-02T06:47:36;7.82;;;6.00;;
48552;SDS011;34335;51.566;6.994;2022-08-02T06:50:02;9.48;;;6.60;;
48552;SDS011;34335;51.566;6.994;2022-08-02T06:52:28;9.48;;;6.05;;
48552;SDS011;34335;51.566;6.994;2022-08-02T06:54:55;11.07;;;6.63;;
48552;SDS011;34335;51.566;6.994;2022-08-02T06:57:22;8.77;;;5.70;;
48552;SDS011;34335;51.566;6.994;2022-08-02T06:59:47;12.05;;;5.70;;
48552;SDS011;34335;51.566;6.994;2022-08-02T07:02:12;8.83;;;5.53;;
48552;SDS011;34335;51.566;6.994;2022-08-02T07:04:38;8.13;;;5.45;;
48552;SDS011;34335;51.566;6.994;2022-08-02T07:07:03;13.03;;;6.40;;
48552;SDS011;34335;51.566;6.994;2022-08-02T07:09:29;12.63;;;5.90;;
48552;SDS011;34335;51.566;6.994;2022-08-02T07:11:54;16.77;;;7.07;;
48552;SDS011;34335;51.566;6.994;2022-08-02T07:14:19;14.60;;;7.63;;
48552;SDS011;34335;51.566;6.994;2022-08-02T07:16:45;12.43;;;7.07;;
48552;SDS011;34335;51.566;6.994;2022-08-02T07:19:10;11.77;;;6.80;;
48552;SDS011;34335;51.566;6.994;2022-08-02T07:21:35;11.53;;;6.60;;
48552;SDS011;34335;51.566;6.994;2022-08-02T07:24:01;11.82;;;6.78;;
48552;SDS011;34335;51.566;6.994;2022-08-02T07:26:26;13.27;;;7.43;;
48552;SDS011;34335;51.566;6.994;2022-08-02T07:28:51;11.50;;;6.43;;
48552;SDS011;34335;51.566;6.994;2022-08-02T07:31:19;15.50;;;6.80;;
48552;SDS011;34335;51.566;6.994;2022-08-02T07:33:44;20.23;;;6.07;;
48552;SDS011;34335;51.566;6.994;2022-08-02T07:36:09;13.23;;;6.57;;
48552;SDS011;34335;51.566;6.994;2022-08-02T07:38:34;12.73;;;5.77;;
48552;SDS011;34335;51.566;6.994;2022-08-02T07:41:00;13.33;;;5.73;;
48552;SDS011;34335;51.566;6.994;2022-08-02T07:43:25;9.47;;;5.30;;
48552;SDS011;34335;51.566;6.994;2022-08-02T07:45:51;7.45;;;4.60;;
48552;SDS011;34335;51.566;6.994;2022-08-02T07:48:16;8.17;;;3.03;;
48552;SDS011;34335;51.566;6.994;2022-08-02T07:50:41;7.53;;;3.60;;
48552;SDS011;34335;51.566;6.994;2022-08-02T07:53:06;7.70;;;3.67;;
48552;SDS011;34335;51.566;6.994;2022-08-02T07:55:32;5.80;;;2.93;;
48552;SDS011;34335;51.566;6.994;2022-08-02T07:57:57;6.47;;;3.27;;
48552;SDS011;34335;51.566;6.994;2022-08-02T08:00:22;7.20;;;2.95;;
48552;SDS011;34335;51.566;6.994;2022-08-02T08:02:48;5.03;;;2.67;;
48552;SDS011;34335;51.566;6.994;2022-08-02T08:05:13;5.18;;;3.00;;
48552;SDS011;34335;51.566;6.994;2022-08-02T08:07:39;6.20;;;2.80;;
48552;SDS011;34335;51.566;6.994;2022-08-02T08:10:04;5.85;;;2.80;;
48552;SDS011;34335;51.566;6.994;2022-08-02T08:12:31;8.05;;;2.40;;
48552;SDS011;34335;51.566;6.994;2022-08-02T08:14:56;5.75;;;2.45;;
48552;SDS011;34335;51.566;6.994;2022-08-02T08:17:21;6.27;;;2.70;;
48552;SDS011;34335;51.566;6.994;2022-08-02T08:19:47;4.70;;;2.40;;
48552;SDS011;34335;51.566;6.994;2022-08-02T08:22:13;8.00;;;2.95;;
48552;SDS011;34335;51.566;6.994;2022-08-02T08:24:38;6.72;;;2.50;;
48552;SDS011;34335;51.566;6.994;2022-08-02T08:27:04;3.85;;;2.25;;
48552;SDS011;34335;51.566;6.994;2022-08-02T08:29:29;5.93;;;3.33;;
48552;SDS011;34335;51.566;6.994;2022-08-02T08:31:55;6.47;;;2.53;;
48552;SDS011;34335;51.566;6.994;2022-08-02T08:34:20;3.00;;;1.83;;
48552;SDS011;34335;51.566;6.994;2022-08-02T08:36:47;4.25;;;1.88;;
48552;SDS011;34335;51.566;6.994;2022-08-02T08:39:13;2.97;;;1.58;;
48552;SDS011;34335;51.566;6.994;2022-08-02T08:41:40;3.30;;;1.38;;
48552;SDS011;34335;51.566;6.994;2022-08-02T08:44:07;5.72;;;1.67;;
48552;SDS011;34335;51.566;6.994;2022-08-02T08:46:34;3.38;;;1.27;;
48552;SDS011;34335;51.566;6.994;2022-08-02T08:49:17;3.55;;;1.20;;
48552;SDS011;34335;51.566;6.994;2022-08-02T08:51:49;3.58;;;1.40;;
48552;SDS011;34335;51.566;6.994;2022-08-02T08:54:18;5.80;;;1.55;;
48552;SDS011;34335;51.566;6.994;2022-08-02T08:56:49;3.58;;;1.30;;
48552;SDS011;34335;51.566;6.994;2022-08-02T08:59:16;4.40;;;1.42;;
48552;SDS011;34335;51.566;6.994;2022-08-02T09:01:43;5.30;;;1.60;;
48552;SDS011;34335;51.566;6.994;2022-08-02T09:04:09;5.05;;;2.08;;
48552;SDS011;34335;51.566;6.994;2022-08-02T09:06:34;3.30;;;1.80;;
48552;SDS011;34335;51.566;6.994;2022-08-02T09:09:00;2.73;;;1.50;;
48552;SDS011;34335;51.566;6.994;2022-08-02T09:11:25;4.77;;;2.17;;
48552;SDS011;34335;51.566;6.994;2022-08-02T09:13:52;4.50;;;2.28;;
48552;SDS011;34335;51.566;6.994;2022-08-02T09:19:00;5.10;;;2.20;;
48552;SDS011;34335;51.566;6.994;2022-08-02T09:21:41;3.97;;;2.13;;
48552;SDS011;34335;51.566;6.994;2022-08-02T09:24:13;4.70;;;2.13;;
48552;SDS011;34335;51.566;6.994;2022-08-02T09:26:48;3.55;;;2.05;;
48552;SDS011;34335;51.566;6.994;2022-08-02T09:29:14;5.53;;;2.42;;
48552;SDS011;34335;51.566;6.994;2022-08-02T09:31:41;7.35;;;2.60;;
48552;SDS011;34335;51.566;6.994;2022-08-02T09:34:06;3.78;;;2.53;;
48552;SDS011;34335;51.566;6.994;2022-08-02T09:36:36;4.82;;;2.67;;
48552;SDS011;34335;51.566;6.994;2022-08-02T09:39:06;3.92;;;2.40;;
48552;SDS011;34335;51.566;6.994;2022-08-02T09:41:37;5.43;;;2.67;;
48552;SDS011;34335;51.566;6.994;2022-08-02T09:44:05;5.32;;;2.72;;
48552;SDS011;34335;51.566;6.994;2022-08-02T09:46:35;5.78;;;2.70;;
48552;SDS011;34335;51.566;6.994;2022-08-02T09:51:48;5.20;;;3.78;;
48552;SDS011;34335;51.566;6.994;2022-08-02T09:54:16;5.05;;;2.78;;
48552;SDS011;34335;51.566;6.994;2022-08-02T09:56:44;6.45;;;3.17;;
48552;SDS011;34335;51.566;6.994;2022-08-02T09:59:20;4.35;;;2.88;;
48552;SDS011;34335;51.566;6.994;2022-08-02T10:01:48;5.13;;;3.17;;
48552;SDS011;34335;51.566;6.994;2022-08-02T10:04:14;5.32;;;3.10;;
48552;SDS011;34335;51.566;6.994;2022-08-02T10:06:44;11.15;;;3.58;;
48552;SDS011;34335;51.566;6.994;2022-08-02T10:09:10;6.10;;;3.30;;
48552;SDS011;34335;51.566;6.994;2022-08-02T10:11:36;9.55;;;4.03;;
48552;SDS011;34335;51.566;6.994;2022-08-02T10:14:02;4.88;;;3.05;;
48552;SDS011;34335;51.566;6.994;2022-08-02T10:16:30;6.75;;;3.72;;
48552;SDS011;34335;51.566;6.994;2022-08-02T10:18:59;6.47;;;3.33;;
48552;SDS011;34335;51.566;6.994;2022-08-02T10:21:28;6.53;;;2.83;;
48552;SDS011;34335;51.566;6.994;2022-08-02T10:24:06;4.68;;;3.13;;
48552;SDS011;34335;51.566;6.994;2022-08-02T10:26:38;5.57;;;2.97;;
48552;SDS011;34335;51.566;6.994;2022-08-02T10:29:07;7.63;;;3.70;;
48552;SDS011;34335;51.566;6.994;2022-08-02T10:31:34;5.07;;;2.95;;
48552;SDS011;34335;51.566;6.994;2022-08-02T10:34:03;5.80;;;2.70;;
48552;SDS011;34335;51.566;6.994;2022-08-02T10:36:33;4.57;;;2.50;;
48552;SDS011;34335;51.566;6.994;2022-08-02T10:39:01;5.45;;;2.80;;
48552;SDS011;34335;51.566;6.994;2022-08-02T10:42:00;5.32;;;2.80;;
48552;SDS011;34335;51.566;6.994;2022-08-02T10:44:29;7.60;;;2.80;;
48552;SDS011;34335;51.566;6.994;2022-08-02T10:49:53;4.57;;;2.72;;
48552;SDS011;34335;51.566;6.994;2022-08-02T10:52:24;4.97;;;2.80;;
48552;SDS011;34335;51.566;6.994;2022-08-02T10:54:55;5.65;;;2.55;;
48552;SDS011;34335;51.566;6.994;2022-08-02T10:57:23;4.00;;;2.83;;
48552;SDS011;34335;51.566;6.994;2022-08-02T10:59:56;6.43;;;2.40;;
48552;SDS011;34335;51.566;6.994;2022-08-02T11:02:32;5.75;;;2.47;;
48552;SDS011;34335;51.566;6.994;2022-08-02T11:05:00;4.88;;;2.38;;
48552;SDS011;34335;51.566;6.994;2022-08-02T11:07:40;7.30;;;3.83;;
48552;SDS011;34335;51.566;6.994;2022-08-02T11:13:10;4.28;;;2.20;;
48552;SDS011;34335;51.566;6.994;2022-08-02T11:15:51;3.20;;;2.00;;
48552;SDS011;34335;51.566;6.994;2022-08-02T11:18:19;4.40;;;2.67;;
48552;SDS011;34335;51.566;6.994;2022-08-02T11:20:46;5.05;;;1.77;;
48552;SDS011;34335;51.566;6.994;2022-08-02T11:26:48;3.97;;;1.83;;
48552;SDS011;34335;51.566;6.994;2022-08-02T11:28:54;2.97;;;1.65;;
48552;SDS011;34335;51.566;6.994;2022-08-02T11:31:20;3.25;;;1.80;;
48552;SDS011;34335;51.566;6.994;2022-08-02T11:33:47;3.10;;;1.77;;
48552;SDS011;34335;51.566;6.994;2022-08-02T11:36:14;3.20;;;1.73;;
48552;SDS011;34335;51.566;6.994;2022-08-02T11:38:39;2.83;;;1.50;;
48552;SDS011;34335;51.566;6.994;2022-08-02T11:41:05;3.40;;;1.80;;
48552;SDS011;34335;51.566;6.994;2022-08-02T11:43:30;3.45;;;1.70;;
48552;SDS011;34335;51.566;6.994;2022-08-02T11:45:56;3.80;;;1.65;;
48552;SDS011;34335;51.566;6.994;2022-08-02T11:48:34;4.47;;;1.90;;
48552;SDS011;34335;51.566;6.994;2022-08-02T11:51:08;3.55;;;1.90;;
48552;SDS011;34335;51.566;6.994;2022-08-02T11:56:26;2.20;;;1.48;;
48552;SDS011;34335;51.566;6.994;2022-08-02T11:59:26;7.22;;;1.70;;
48552;SDS011;34335;51.566;6.994;2022-08-02T12:01:44;3.30;;;1.85;;
48552;SDS011;34335;51.566;6.994;2022-08-02T12:04:10;6.22;;;2.00;;
48552;SDS011;34335;51.566;6.994;2022-08-02T12:06:36;3.83;;;1.60;;
48552;SDS011;34335;51.566;6.994;2022-08-02T12:11:30;4.93;;;1.92;;
48552;SDS011;34335;51.566;6.994;2022-08-02T12:13:56;3.28;;;1.65;;
48552;SDS011;34335;51.566;6.994;2022-08-02T12:16:21;8.13;;;1.70;;
48552;SDS011;34335;51.566;6.994;2022-08-02T12:19:06;2.55;;;2.00;;
48552;SDS011;34335;51.566;6.994;2022-08-02T12:21:43;3.40;;;1.60;;
48552;SDS011;34335;51.566;6.994;2022-08-02T12:24:12;6.00;;;1.77;;
48552;SDS011;34335;51.566;6.994;2022-08-02T12:26:45;7.00;;;2.10;;
48552;SDS011;34335;51.566;6.994;2022-08-02T12:29:12;3.58;;;1.90;;
48552;SDS011;34335;51.566;6.994;2022-08-02T12:31:44;2.90;;;1.50;;
48552;SDS011;34335;51.566;6.994;2022-08-02T12:34:15;4.05;;;1.90;;
48552;SDS011;34335;51.566;6.994;2022-08-02T12:36:43;2.72;;;1.55;;
48552;SDS011;34335;51.566;6.994;2022-08-02T12:39:31;6.43;;;1.80;;
48552;SDS011;34335;51.566;6.994;2022-08-02T12:42:15;3.75;;;1.50;;
48552;SDS011;34335;51.566;6.994;2022-08-02T12:44:54;4.10;;;1.60;;
48552;SDS011;34335;51.566;6.994;2022-08-02T12:47:22;4.20;;;1.70;;
48552;SDS011;34335;51.566;6.994;2022-08-02T12:50:09;2.60;;;1.20;;
48552;SDS011;34335;51.566;6.994;2022-08-02T12:52:50;4.13;;;1.60;;
48552;SDS011;34335;51.566;6.994;2022-08-02T12:55:26;4.85;;;1.67;;
48552;SDS011;34335;51.566;6.994;2022-08-02T13:02:59;4.93;;;1.75;;
48552;SDS011;34335;51.566;6.994;2022-08-02T13:05:25;2.38;;;1.45;;
48552;SDS011;34335;51.566;6.994;2022-08-02T13:07:53;2.75;;;1.65;;
48552;SDS011;34335;51.566;6.994;2022-08-02T13:10:18;3.28;;;1.75;;
48552;SDS011;34335;51.566;6.994;2022-08-02T13:12:44;2.80;;;1.33;;
48552;SDS011;34335;51.566;6.994;2022-08-02T13:15:10;2.80;;;1.40;;
48552;SDS011;34335;51.566;6.994;2022-08-02T13:17:35;2.65;;;1.38;;
48552;SDS011;34335;51.566;6.994;2022-08-02T13:20:01;3.13;;;1.58;;
48552;SDS011;34335;51.566;6.994;2022-08-02T13:22:26;4.28;;;1.42;;
48552;SDS011;34335;51.566;6.994;2022-08-02T13:24:51;5.60;;;1.50;;
48552;SDS011;34335;51.566;6.994;2022-08-02T13:27:17;2.43;;;1.40;;
48552;SDS011;34335;51.566;6.994;2022-08-02T13:29:43;4.07;;;1.70;;
48552;SDS011;34335;51.566;6.994;2022-08-02T13:32:09;2.80;;;1.60;;
48552;SDS011;34335;51.566;6.994;2022-08-02T13:34:34;4.40;;;1.33;;
48552;SDS011;34335;51.566;6.994;2022-08-02T13:37:00;4.80;;;1.70;;
48552;SDS011;34335;51.566;6.994;2022-08-02T13:39:26;7.65;;;2.08;;
48552;SDS011;34335;51.566;6.994;2022-08-02T13:41:52;3.72;;;1.70;;
48552;SDS011;34335;51.566;6.994;2022-08-02T13:44:18;3.67;;;1.45;;
48552;SDS011;34335;51.566;6.994;2022-08-02T13:46:43;2.80;;;1.52;;
48552;SDS011;34335;51.566;6.994;2022-08-02T13:49:08;2.42;;;1.35;;
48552;SDS011;34335;51.566;6.994;2022-08-02T13:51:34;4.43;;;1.50;;
48552;SDS011;34335;51.566;6.994;2022-08-02T13:53:59;6.80;;;1.87;;
48552;SDS011;34335;51.566;6.994;2022-08-02T13:56:24;3.07;;;1.60;;
48552;SDS011;34335;51.566;6.994;2022-08-02T13:58:51;7.07;;;1.88;;
48552;SDS011;34335;51.566;6.994;2022-08-02T14:01:16;2.73;;;1.53;;
48552;SDS011;34335;51.566;6.994;2022-08-02T14:03:41;2.87;;;1.57;;
48552;SDS011;34335;51.566;6.994;2022-08-02T14:06:06;2.77;;;1.30;;
48552;SDS011;34335;51.566;6.994;2022-08-02T14:08:33;3.53;;;1.83;;
48552;SDS011;34335;51.566;6.994;2022-08-02T14:10:58;3.40;;;1.40;;
48552;SDS011;34335;51.566;6.994;2022-08-02T14:13:23;2.55;;;1.45;;
48552;SDS011;34335;51.566;6.994;2022-08-02T14:15:49;3.07;;;1.60;;
48552;SDS011;34335;51.566;6.994;2022-08-02T14:18:14;3.13;;;1.50;;
48552;SDS011;34335;51.566;6.994;2022-08-02T14:20:40;4.57;;;1.60;;
48552;SDS011;34335;51.566;6.994;2022-08-02T14:23:06;3.72;;;1.48;;
48552;SDS011;34335;51.566;6.994;2022-08-02T14:25:32;2.70;;;1.55;;
48552;SDS011;34335;51.566;6.994;2022-08-02T14:27:57;2.30;;;1.13;;
48552;SDS011;34335;51.566;6.994;2022-08-02T14:30:22;3.53;;;1.40;;
48552;SDS011;34335;51.566;6.994;2022-08-02T14:32:48;2.53;;;1.33;;
48552;SDS011;34335;51.566;6.994;2022-08-02T14:35:14;2.67;;;1.10;;
48552;SDS011;34335;51.566;6.994;2022-08-02T14:37:39;2.13;;;1.30;;
48552;SDS011;34335;51.566;6.994;2022-08-02T14:40:05;2.95;;;1.30;;
48552;SDS011;34335;51.566;6.994;2022-08-02T14:42:30;3.45;;;1.40;;
48552;SDS011;34335;51.566;6.994;2022-08-02T14:44:56;3.10;;;1.27;;
48552;SDS011;34335;51.566;6.994;2022-08-02T14:47:21;1.90;;;1.00;;
48552;SDS011;34335;51.566;6.994;2022-08-02T14:49:46;3.13;;;1.50;;
48552;SDS011;34335;51.566;6.994;2022-08-02T14:52:12;3.03;;;1.50;;
48552;SDS011;34335;51.566;6.994;2022-08-02T14:54:38;2.83;;;1.52;;
48552;SDS011;34335;51.566;6.994;2022-08-02T14:57:05;3.13;;;1.52;;
48552;SDS011;34335;51.566;6.994;2022-08-02T14:59:30;10.35;;;2.15;;
48552;SDS011;34335;51.566;6.994;2022-08-02T15:01:56;2.65;;;1.30;;
48552;SDS011;34335;51.566;6.994;2022-08-02T15:04:22;3.95;;;1.50;;
48552;SDS011;34335;51.566;6.994;2022-08-02T15:06:47;3.72;;;1.70;;
48552;SDS011;34335;51.566;6.994;2022-08-02T15:09:13;2.75;;;1.42;;
48552;SDS011;34335;51.566;6.994;2022-08-02T15:11:38;3.75;;;1.58;;
48552;SDS011;34335;51.566;6.994;2022-08-02T15:14:04;6.07;;;1.50;;
48552;SDS011;34335;51.566;6.994;2022-08-02T15:16:29;2.28;;;1.17;;
48552;SDS011;34335;51.566;6.994;2022-08-02T15:18:59;3.25;;;1.52;;
48552;SDS011;34335;51.566;6.994;2022-08-02T15:21:25;4.00;;;1.50;;
48552;SDS011;34335;51.566;6.994;2022-08-02T15:23:50;4.00;;;1.43;;
48552;SDS011;34335;51.566;6.994;2022-08-02T15:26:16;3.93;;;1.50;;
48552;SDS011;34335;51.566;6.994;2022-08-02T15:28:41;4.20;;;1.60;;
48552;SDS011;34335;51.566;6.994;2022-08-02T15:31:07;2.70;;;1.53;;
48552;SDS011;34335;51.566;6.994;2022-08-02T15:33:32;3.27;;;1.23;;
48552;SDS011;34335;51.566;6.994;2022-08-02T15:35:57;3.55;;;1.60;;
48552;SDS011;34335;51.566;6.994;2022-08-02T15:38:23;7.25;;;1.40;;